Time;durP1;ratioP1;P1;durP2;ratioP2;P2;SDS_P1;SDS_P2;PMS_P1;PMS_P2;Temp;Humidity;BMP_temperature;BMP_pressure;BME280_temperature;BME280_humidity;BME280_pressure;Samples;Min_cycle;Max_cycle;Signal;HPM_P1;HPM_P2
2022/12/04 00:00:46;;;;;;;6.15;3.42;;;4.10;99.90;;;;;;4956654;29;20122;-94
2022/12/04 00:03:11;;;;;;;8.75;3.42;;;4.00;99.90;;;;;;4957266;28;20023;-96
2022/12/04 00:05:37;;;;;;;8.50;3.72;;;4.00;99.90;;;;;;4956760;29;20023;-92
2022/12/04 00:08:02;;;;;;;13.85;4.15;;;4.00;99.90;;;;;;4956204;29;20031;-93
2022/12/04 00:10:28;;;;;;;13.68;5.38;;;3.90;99.90;;;;;;4957001;29;20393;-92
2022/12/04 00:12:54;;;;;;;10.65;4.85;;;3.90;99.90;;;;;;4957225;29;20038;-94
2022/12/04 00:15:19;;;;;;;14.00;5.53;;;3.90;99.90;;;;;;4957521;29;20028;-94
2022/12/04 00:17:47;;;;;;;11.02;4.40;;;3.90;99.90;;;;;;4957518;28;20033;-94
2022/12/04 00:20:13;;;;;;;11.88;5.05;;;3.90;99.90;;;;;;4955934;29;20420;-94
2022/12/04 00:22:39;;;;;;;10.25;4.95;;;3.90;99.90;;;;;;4956749;28;20098;-95
2022/12/04 00:25:04;;;;;;;15.73;5.22;;;3.90;99.90;;;;;;4955697;29;20046;-95
2022/12/04 00:27:30;;;;;;;13.63;5.28;;;3.90;99.90;;;;;;4956183;28;20039;-94
2022/12/04 00:29:56;;;;;;;18.15;5.95;;;3.90;99.90;;;;;;4957114;29;20028;-93
2022/12/04 00:32:21;;;;;;;15.15;5.85;;;3.80;99.90;;;;;;4956190;29;20041;-94
2022/12/04 00:34:47;;;;;;;14.13;6.65;;;3.90;99.90;;;;;;4955618;29;20027;-93
2022/12/04 00:37:12;;;;;;;12.25;5.72;;;3.90;99.90;;;;;;4955377;29;20046;-95
2022/12/04 00:39:38;;;;;;;15.35;7.63;;;3.90;99.90;;;;;;4955743;29;20039;-93
2022/12/04 00:42:04;;;;;;;11.32;6.90;;;3.90;99.90;;;;;;4957084;29;20054;-94
2022/12/04 00:44:29;;;;;;;12.40;7.55;;;3.90;99.90;;;;;;4956273;28;20394;-95
2022/12/04 00:46:55;;;;;;;18.95;7.25;;;4.00;99.90;;;;;;4955130;29;20045;-94
2022/12/04 00:49:20;;;;;;;14.25;7.13;;;3.90;99.90;;;;;;4956061;29;20023;-94
2022/12/04 00:51:46;;;;;;;10.52;6.78;;;3.90;99.90;;;;;;4955745;29;20113;-94
2022/12/04 00:54:12;;;;;;;15.02;6.68;;;3.90;99.90;;;;;;4955147;29;20058;-93
2022/12/04 00:56:38;;;;;;;15.23;6.68;;;3.90;99.90;;;;;;4955504;29;20039;-95
2022/12/04 00:59:04;;;;;;;18.13;5.75;;;3.90;99.90;;;;;;4955530;29;20027;-94
2022/12/04 01:01:30;;;;;;;10.75;5.60;;;3.90;99.90;;;;;;4954909;29;20126;-95
2022/12/04 01:03:56;;;;;;;20.50;6.07;;;3.90;99.90;;;;;;4954727;29;20069;-94
2022/12/04 01:06:28;;;;;;;10.65;5.50;;;3.90;99.90;;;;;;4954656;29;20066;-91
2022/12/04 01:08:55;;;;;;;13.63;5.63;;;3.90;99.90;;;;;;4955114;28;20023;-92
2022/12/04 01:11:22;;;;;;;14.20;4.30;;;3.90;99.90;;;;;;4954477;29;20031;-94
2022/12/04 01:13:48;;;;;;;11.07;5.45;;;3.90;99.90;;;;;;4955060;28;20023;-94
2022/12/04 01:16:21;;;;;;;12.43;4.38;;;3.90;99.90;;;;;;4954583;29;20039;-93
2022/12/04 01:18:47;;;;;;;7.25;4.05;;;3.90;99.90;;;;;;4955690;28;20031;-94
2022/12/04 01:21:13;;;;;;;8.43;3.72;;;3.90;99.90;;;;;;4955887;29;20026;-94
2022/12/04 01:23:39;;;;;;;11.60;5.30;;;3.90;99.90;;;;;;4956045;29;20023;-93
2022/12/04 01:26:05;;;;;;;5.60;3.75;;;3.90;99.90;;;;;;4954514;29;20071;-93
2022/12/04 01:28:30;;;;;;;8.93;3.72;;;3.80;99.90;;;;;;4961827;28;20125;-96
2022/12/04 01:31:13;;;;;;;6.35;4.00;;;3.80;99.90;;;;;;4973799;28;20034;-93
2022/12/04 01:33:40;;;;;;;6.68;4.32;;;3.70;99.90;;;;;;4973547;28;20472;-94
2022/12/04 01:36:09;;;;;;;8.93;5.75;;;3.60;99.90;;;;;;4974674;28;20054;-95
2022/12/04 01:38:36;;;;;;;11.30;5.22;;;3.60;99.90;;;;;;4975044;28;20019;-96
2022/12/04 01:41:02;;;;;;;11.95;6.85;;;3.50;99.90;;;;;;4976064;28;20027;-94
2022/12/04 01:43:30;;;;;;;15.07;6.70;;;3.60;99.90;;;;;;4977621;28;20038;-92
2022/12/04 01:45:57;;;;;;;16.48;7.35;;;3.50;99.90;;;;;;4974142;28;20042;-93
2022/12/04 01:48:31;;;;;;;19.70;8.63;;;3.50;99.90;;;;;;4973183;28;20456;-94
2022/12/04 01:51:17;;;;;;;18.25;8.90;;;3.50;99.90;;;;;;4973020;28;20081;-93
2022/12/04 01:53:51;;;;;;;14.85;8.27;;;3.50;99.90;;;;;;4972699;28;20073;-92
2022/12/04 01:56:19;;;;;;;15.18;7.57;;;3.50;99.90;;;;;;4973605;28;20030;-93
2022/12/04 01:58:50;;;;;;;13.80;6.13;;;3.50;99.90;;;;;;4959835;28;20511;-91
2022/12/04 02:01:15;;;;;;;18.00;7.93;;;3.50;99.90;;;;;;4957016;29;20057;-92
2022/12/04 02:03:42;;;;;;;18.67;7.75;;;3.50;99.90;;;;;;4958220;29;20487;-95
2022/12/04 02:06:07;;;;;;;15.73;8.10;;;3.50;99.90;;;;;;4957761;29;20591;-92
2022/12/04 02:08:35;;;;;;;11.63;6.90;;;3.50;99.90;;;;;;4957316;29;20023;-94
2022/12/04 02:11:28;;;;;;;8.48;5.18;;;3.50;99.90;;;;;;4958824;28;20481;-94
2022/12/04 02:14:37;;;;;;;7.32;4.25;;;3.50;99.90;;;;;;4956725;29;20180;-94
2022/12/04 02:17:12;;;;;;;8.38;4.63;;;3.50;99.90;;;;;;4957858;29;20023;-94
2022/12/04 02:20:08;;;;;;;9.63;4.63;;;3.40;99.90;;;;;;4958271;29;20027;-92
2022/12/04 02:23:03;;;;;;;9.23;4.22;;;3.40;99.90;;;;;;4957976;29;20085;-94
2022/12/04 02:25:56;;;;;;;4.65;2.72;;;3.40;99.90;;;;;;4961888;29;20039;-93
2022/12/04 02:28:32;;;;;;;4.50;2.88;;;3.30;99.90;;;;;;4918083;29;20174;-91
2022/12/04 02:31:01;;;;;;;7.85;3.00;;;3.30;99.90;;;;;;4917699;29;20071;-92
2022/12/04 02:33:35;;;;;;;4.22;2.47;;;3.30;99.90;;;;;;4916772;29;20060;-93
2022/12/04 02:36:11;;;;;;;4.13;2.30;;;3.30;99.90;;;;;;4917118;29;20028;-91
2022/12/04 02:38:44;;;;;;;3.53;2.10;;;3.20;99.90;;;;;;4916371;29;20080;-93
2022/12/04 02:41:20;;;;;;;5.72;2.35;;;3.20;99.90;;;;;;4917179;29;20024;-94
2022/12/04 02:44:03;;;;;;;2.55;2.05;;;3.20;99.90;;;;;;4916661;29;20032;-94
2022/12/04 02:46:36;;;;;;;3.92;2.45;;;3.20;99.90;;;;;;4917096;29;20515;-94
2022/12/04 02:49:06;;;;;;;4.82;2.83;;;3.20;99.90;;;;;;4920267;29;20032;-91
2022/12/04 02:51:36;;;;;;;9.30;3.65;;;3.20;99.90;;;;;;4919607;29;20064;-93
2022/12/04 02:54:16;;;;;;;12.05;4.38;;;3.20;99.90;;;;;;4918795;29;20143;-93
2022/12/04 02:56:44;;;;;;;7.40;3.47;;;3.20;99.90;;;;;;4917587;29;20506;-94
2022/12/04 02:59:16;;;;;;;4.82;2.88;;;3.20;99.90;;;;;;4917295;29;20393;-92
2022/12/04 03:01:48;;;;;;;4.72;2.80;;;3.20;99.90;;;;;;4916907;29;20155;-95
2022/12/04 03:04:20;;;;;;;3.50;2.45;;;3.20;99.90;;;;;;4919319;29;20479;-95
2022/12/04 03:07:15;;;;;;;5.43;2.40;;;3.20;99.90;;;;;;4955773;29;20039;-95
2022/12/04 03:10:04;;;;;;;3.13;2.53;;;3.20;99.90;;;;;;4954635;29;20042;-93
2022/12/04 03:12:43;;;;;;;3.38;2.72;;;3.20;99.90;;;;;;4956462;28;20363;-93
2022/12/04 03:15:32;;;;;;;5.00;2.45;;;3.20;99.90;;;;;;4956832;28;20212;-94
2022/12/04 03:18:27;;;;;;;3.58;2.70;;;3.20;99.90;;;;;;4956354;28;20032;-92
2022/12/04 03:21:00;;;;;;;7.70;3.20;;;3.20;99.90;;;;;;4960920;29;20023;-93
2022/12/04 03:23:34;;;;;;;6.57;2.95;;;3.20;99.90;;;;;;4970914;28;20015;-96
2022/12/04 03:26:07;;;;;;;6.10;3.45;;;3.10;99.90;;;;;;4956353;29;20051;-95
2022/12/04 03:29:02;;;;;;;5.38;3.92;;;3.20;99.90;;;;;;4956638;29;20023;-95
2022/12/04 03:31:33;;;;;;;6.53;4.15;;;3.20;99.90;;;;;;4934899;28;20054;-95
2022/12/04 03:34:01;;;;;;;6.97;4.22;;;3.20;99.90;;;;;;4957759;29;20507;-95
2022/12/04 03:36:33;;;;;;;9.02;4.30;;;3.20;99.90;;;;;;4955986;29;20034;-94
2022/12/04 03:39:16;;;;;;;4.45;3.40;;;3.20;99.90;;;;;;4955760;29;20058;-93
2022/12/04 03:41:56;;;;;;;5.15;4.20;;;3.30;99.90;;;;;;4959147;28;20477;-94
2022/12/04 03:44:38;;;;;;;6.38;3.40;;;3.30;99.90;;;;;;4956675;28;20094;-95
2022/12/04 03:47:11;;;;;;;8.18;3.67;;;3.30;99.90;;;;;;4957926;28;20047;-93
2022/12/04 03:49:48;;;;;;;6.50;3.40;;;3.30;99.90;;;;;;4956443;28;20030;-92
2022/12/04 03:52:28;;;;;;;4.50;3.20;;;3.30;99.90;;;;;;4954565;29;20094;-92
2022/12/04 03:55:10;;;;;;;5.40;3.60;;;3.30;99.90;;;;;;4954297;29;20183;-94
2022/12/04 03:57:40;;;;;;;7.85;3.63;;;3.40;99.90;;;;;;4954483;29;20039;-92
2022/12/04 04:00:16;;;;;;;;;;;3.30;99.90;;;;;;4954273;29;20019;-93
2022/12/04 04:02:48;;;;;;;5.80;3.65;;;3.40;99.90;;;;;;4955368;28;19914;-93
2022/12/04 04:05:15;;;;;;;5.35;3.72;;;3.30;99.90;;;;;;4954975;28;20078;-93
2022/12/04 04:07:45;;;;;;;8.43;3.60;;;3.40;99.90;;;;;;4955420;28;20086;-93
2022/12/04 04:10:16;;;;;;;6.55;4.00;;;3.40;99.90;;;;;;4953948;29;20025;-92
2022/12/04 04:24:36;;;;;;;12.40;3.50;;;3.40;99.90;;;;;;4956124;29;20883;-93
2022/12/04 04:27:02;;;;;;;6.88;3.15;;;3.50;99.90;;;;;;4954667;29;20039;-93
2022/12/04 04:29:28;;;;;;;5.72;3.33;;;3.50;99.90;;;;;;4955310;28;20035;-94
2022/12/04 04:32:00;;;;;;;6.40;2.97;;;3.50;99.90;;;;;;4954320;29;20035;-93
2022/12/04 04:34:43;;;;;;;7.13;3.20;;;3.50;99.90;;;;;;4955488;28;20127;-93
2022/12/04 04:37:14;;;;;;;4.60;2.70;;;3.50;99.90;;;;;;4954985;29;20035;-94
2022/12/04 04:40:10;;;;;;;5.88;2.88;;;3.50;99.90;;;;;;4954273;29;20465;-95
2022/12/04 04:42:44;;;;;;;3.22;1.75;;;3.50;99.90;;;;;;4949390;29;20039;-92
2022/12/04 04:45:22;;;;;;;4.10;2.50;;;3.40;99.90;;;;;;4954987;28;20035;-93
2022/12/04 04:48:17;;;;;;;3.60;2.50;;;3.40;99.90;;;;;;4953755;29;20386;-94
2022/12/04 04:50:44;;;;;;;4.22;2.50;;;3.40;99.90;;;;;;4953514;29;20070;-94
2022/12/04 04:53:27;;;;;;;5.28;2.90;;;3.40;99.90;;;;;;4953536;29;20051;-94
2022/12/04 04:55:53;;;;;;;6.30;2.58;;;3.40;99.90;;;;;;4954069;29;20031;-92
2022/12/04 04:58:20;;;;;;;4.00;2.50;;;3.40;99.90;;;;;;4954208;29;20031;-95
2022/12/04 05:01:00;;;;;;;5.13;2.25;;;3.40;99.90;;;;;;4954830;29;20023;-95
2022/12/04 05:03:27;;;;;;;2.85;2.25;;;3.40;99.90;;;;;;4953638;29;20023;-92
2022/12/04 05:05:53;;;;;;;2.45;2.00;;;3.50;99.90;;;;;;4954546;28;20055;-93
2022/12/04 05:08:19;;;;;;;4.35;2.20;;;3.50;99.90;;;;;;4953739;28;20122;-91
2022/12/04 05:10:44;;;;;;;4.38;2.10;;;3.50;99.90;;;;;;4953749;29;20027;-92
2022/12/04 05:13:14;;;;;;;4.28;2.53;;;3.40;99.90;;;;;;4953179;29;20609;-95
2022/12/04 05:15:39;;;;;;;5.38;2.35;;;3.40;99.90;;;;;;4954533;28;20034;-93
2022/12/04 05:18:05;;;;;;;3.47;2.33;;;3.50;99.90;;;;;;4954299;29;20031;-95
2022/12/04 05:20:31;;;;;;;3.47;2.95;;;3.40;99.90;;;;;;4954275;28;20059;-94
2022/12/04 05:22:57;;;;;;;6.50;2.30;;;3.40;99.90;;;;;;4953650;29;20090;-93
2022/12/04 05:25:23;;;;;;;4.50;2.40;;;3.40;99.90;;;;;;4954242;29;20540;-93
2022/12/04 05:27:48;;;;;;;4.60;2.30;;;3.50;99.90;;;;;;4953724;29;20058;-92
2022/12/04 05:30:14;;;;;;;2.42;2.10;;;3.50;99.90;;;;;;4952914;29;20039;-93
2022/12/04 05:32:40;;;;;;;5.72;1.85;;;3.50;99.90;;;;;;4952561;29;20393;-93
2022/12/04 05:35:06;;;;;;;3.58;1.70;;;3.50;99.90;;;;;;4953765;29;20495;-94
2022/12/04 05:37:36;;;;;;;5.00;2.17;;;3.50;99.90;;;;;;4953782;28;20035;-92
2022/12/04 05:40:03;;;;;;;4.03;2.42;;;3.50;99.90;;;;;;4953545;29;20035;-91
2022/12/04 05:42:29;;;;;;;3.72;2.65;;;3.50;99.90;;;;;;4953465;29;20625;-93
2022/12/04 05:44:54;;;;;;;6.70;3.00;;;3.50;99.90;;;;;;4952540;29;20031;-94
2022/12/04 05:47:20;;;;;;;4.30;2.85;;;3.60;99.90;;;;;;4953184;29;20063;-94
2022/12/04 05:49:46;;;;;;;5.57;2.70;;;3.60;99.90;;;;;;4956124;29;20034;-94
2022/12/04 05:52:12;;;;;;;7.50;2.90;;;3.60;99.90;;;;;;4958059;29;20031;-92
2022/12/04 05:54:38;;;;;;;4.45;2.60;;;3.60;99.90;;;;;;4956655;29;20047;-92
2022/12/04 05:57:03;;;;;;;5.38;2.80;;;3.70;99.90;;;;;;4956594;29;20039;-92
2022/12/04 05:59:29;;;;;;;4.72;2.80;;;3.70;99.90;;;;;;4954408;29;20035;-93
2022/12/04 06:01:54;;;;;;;5.68;2.75;;;3.70;99.90;;;;;;4952714;29;20548;-93
2022/12/04 06:04:20;;;;;;;5.22;2.47;;;3.70;99.90;;;;;;4953792;29;20035;-94
2022/12/04 06:06:46;;;;;;;5.18;3.33;;;3.70;99.90;;;;;;4952996;28;20054;-91
2022/12/04 06:09:12;;;;;;;6.55;3.55;;;3.70;99.90;;;;;;4956184;28;20038;-93
2022/12/04 06:11:39;;;;;;;6.57;3.50;;;3.70;99.90;;;;;;4963899;28;20373;-93
2022/12/04 06:14:09;;;;;;;5.30;3.20;;;3.80;99.90;;;;;;4957928;28;20027;-94
2022/12/04 06:16:40;;;;;;;9.63;3.42;;;3.80;99.90;;;;;;4963010;28;20081;-94
2022/12/04 06:19:08;;;;;;;3.88;3.13;;;3.80;99.90;;;;;;4960179;28;20505;-93
2022/12/04 06:21:36;;;;;;;4.30;3.13;;;3.80;99.90;;;;;;4961889;28;20031;-94
2022/12/04 06:24:02;;;;;;;4.05;3.13;;;3.80;99.90;;;;;;4963289;28;20035;-94
2022/12/04 06:26:28;;;;;;;8.40;2.80;;;3.70;99.90;;;;;;4959433;28;20125;-92
2022/12/04 06:28:56;;;;;;;4.57;3.20;;;3.80;99.90;;;;;;4960352;28;20035;-93
2022/12/04 06:31:23;;;;;;;6.00;3.22;;;3.70;99.90;;;;;;4964103;28;20027;-93
2022/12/04 06:33:49;;;;;;;3.85;3.03;;;3.70;99.90;;;;;;4962877;28;20064;-94
2022/12/04 06:36:17;;;;;;;5.53;2.72;;;3.70;99.90;;;;;;4960483;28;20034;-93
2022/12/04 06:38:44;;;;;;;2.88;2.00;;;3.70;99.90;;;;;;4964271;28;20023;-95
2022/12/04 06:41:12;;;;;;;3.42;2.40;;;3.70;99.90;;;;;;4969136;28;20106;-93
2022/12/04 06:43:38;;;;;;;2.63;2.10;;;3.70;99.90;;;;;;4975669;28;20031;-93
2022/12/04 06:46:07;;;;;;;3.30;2.30;;;3.70;99.90;;;;;;4977099;28;20070;-93
2022/12/04 06:48:33;;;;;;;4.80;2.63;;;3.60;99.90;;;;;;4977828;28;20485;-93
2022/12/04 06:51:05;;;;;;;4.43;2.67;;;3.70;99.90;;;;;;4967247;28;20102;-96
2022/12/04 06:53:31;;;;;;;4.90;3.28;;;3.80;99.90;;;;;;4974205;28;20061;-93
2022/12/04 06:56:02;;;;;;;4.50;2.55;;;3.80;99.90;;;;;;4971345;28;20027;-96
2022/12/04 06:58:28;;;;;;;3.22;2.33;;;3.90;99.90;;;;;;4966961;28;20025;-94
2022/12/04 07:00:55;;;;;;;4.35;2.25;;;3.90;99.90;;;;;;4963717;28;20031;-90
2022/12/04 07:03:22;;;;;;;3.55;2.40;;;3.90;99.90;;;;;;4961253;28;20118;-91
2022/12/04 07:05:48;;;;;;;3.13;2.22;;;3.90;99.90;;;;;;4966910;28;20027;-92
2022/12/04 07:08:14;;;;;;;3.80;2.30;;;3.90;99.90;;;;;;4964298;28;20113;-93
2022/12/04 07:10:39;;;;;;;3.15;1.70;;;3.90;99.90;;;;;;4967087;28;20034;-94
2022/12/04 07:13:06;;;;;;;2.55;1.80;;;4.00;99.90;;;;;;4966983;28;20034;-93
2022/12/04 07:15:33;;;;;;;2.67;1.73;;;3.90;99.90;;;;;;4966663;28;20121;-94
2022/12/04 07:17:59;;;;;;;1.77;1.38;;;3.90;99.90;;;;;;4965595;28;20090;-95
2022/12/04 07:20:25;;;;;;;3.60;1.70;;;3.80;99.90;;;;;;4969332;28;20034;-91
2022/12/04 07:22:51;;;;;;;4.07;1.85;;;3.80;99.90;;;;;;4969575;28;20029;-93
2022/12/04 07:25:17;;;;;;;2.17;1.10;;;3.80;99.90;;;;;;4969542;28;20027;-93
2022/12/04 07:27:42;;;;;;;2.60;1.48;;;3.80;99.90;;;;;;4971674;28;20476;-92
2022/12/04 07:30:09;;;;;;;1.88;1.23;;;3.80;99.90;;;;;;4971431;28;20032;-93
2022/12/04 07:32:35;;;;;;;1.45;1.00;;;3.80;99.90;;;;;;4966625;28;20491;-92
2022/12/04 07:35:01;;;;;;;6.38;1.50;;;3.80;99.90;;;;;;4968235;28;20030;-93
2022/12/04 07:37:27;;;;;;;1.60;1.42;;;3.80;99.90;;;;;;4974141;28;20046;-92
2022/12/04 07:39:53;;;;;;;3.22;1.60;;;3.80;99.90;;;;;;4976293;28;20122;-92
2022/12/04 07:42:19;;;;;;;2.63;1.55;;;3.80;99.90;;;;;;4976700;28;20042;-91
2022/12/04 07:44:45;;;;;;;3.75;2.40;;;3.80;99.90;;;;;;4978476;28;20053;-92
2022/12/04 07:47:11;;;;;;;4.25;3.13;;;3.80;99.90;;;;;;4976975;28;20030;-93
2022/12/04 07:49:36;;;;;;;4.32;3.20;;;3.70;99.90;;;;;;4979920;28;20027;-95
2022/12/04 07:52:02;;;;;;;6.85;3.58;;;3.70;99.90;;;;;;4974961;28;20143;-95
2022/12/04 07:54:28;;;;;;;6.03;3.92;;;3.80;99.90;;;;;;4971523;28;20077;-93
2022/12/04 07:56:53;;;;;;;8.70;4.32;;;3.80;99.90;;;;;;4965768;28;20027;-94
2022/12/04 07:59:19;;;;;;;10.73;3.90;;;3.80;99.90;;;;;;4970783;28;20050;-93
2022/12/04 08:01:51;;;;;;;8.13;4.72;;;3.80;99.90;;;;;;4970228;28;20354;-94
2022/12/04 08:04:17;;;;;;;8.23;4.40;;;3.80;99.90;;;;;;4967152;28;20093;-92
2022/12/04 08:06:42;;;;;;;6.80;4.32;;;3.80;99.90;;;;;;4967150;28;20039;-93
2022/12/04 08:09:08;;;;;;;9.43;4.43;;;3.80;99.90;;;;;;4968506;28;20023;-92
2022/12/04 08:11:35;;;;;;;11.00;5.10;;;3.90;99.90;;;;;;4971652;28;20051;-93
2022/12/04 08:14:03;;;;;;;11.57;5.35;;;3.80;99.90;;;;;;4971648;28;20428;-93
2022/12/04 08:16:30;;;;;;;12.05;5.40;;;3.80;99.90;;;;;;4978745;28;20126;-93
2022/12/04 08:18:57;;;;;;;8.60;5.15;;;3.90;99.90;;;;;;4979000;28;20027;-93
2022/12/04 08:21:24;;;;;;;14.35;6.03;;;3.90;99.90;;;;;;4976977;28;20031;-92
2022/12/04 08:23:52;;;;;;;15.65;5.35;;;3.90;99.90;;;;;;4977505;28;20030;-92
2022/12/04 08:26:20;;;;;;;13.50;6.20;;;3.90;99.90;;;;;;4978989;28;20058;-94
2022/12/04 08:28:45;;;;;;;11.65;5.25;;;3.90;99.90;;;;;;4977968;28;20023;-91
2022/12/04 08:31:18;;;;;;;11.98;6.22;;;3.90;99.90;;;;;;4976110;28;20189;-94
2022/12/04 08:33:45;;;;;;;14.13;5.88;;;3.90;99.90;;;;;;4975971;28;20033;-93
2022/12/04 08:36:14;;;;;;;13.35;5.30;;;3.90;99.90;;;;;;4976008;28;20046;-94
2022/12/04 08:38:40;;;;;;;16.98;5.80;;;3.90;99.90;;;;;;4976880;28;20027;-96
2022/12/04 08:41:08;;;;;;;13.88;5.80;;;3.90;99.90;;;;;;4976398;28;20033;-94
2022/12/04 08:43:33;;;;;;;14.18;6.22;;;4.00;99.90;;;;;;4976948;28;20027;-95
2022/12/04 08:46:03;;;;;;;19.20;5.95;;;3.90;99.90;;;;;;4976567;28;20077;-94
2022/12/04 08:48:28;;;;;;;19.80;6.43;;;3.90;99.90;;;;;;4978423;28;20139;-93
2022/12/04 08:50:54;;;;;;;11.85;5.28;;;4.00;99.90;;;;;;4978011;28;20034;-93
2022/12/04 08:53:21;;;;;;;10.43;5.65;;;4.00;99.90;;;;;;4985176;28;20066;-94
2022/12/04 08:55:47;;;;;;;17.98;6.50;;;4.00;99.90;;;;;;4984133;28;20027;-93
2022/12/04 08:58:13;;;;;;;14.88;6.07;;;4.00;99.90;;;;;;4981809;28;20037;-94
2022/12/04 09:00:39;;;;;;;19.02;6.10;;;4.00;99.90;;;;;;4981333;28;20062;-93
2022/12/04 09:03:05;;;;;;;15.65;5.03;;;4.00;99.90;;;;;;4978022;28;20507;-93
2022/12/04 09:05:31;;;;;;;14.80;5.55;;;4.00;99.90;;;;;;4964647;28;20777;-93
2022/12/04 09:07:56;;;;;;;16.25;5.82;;;4.10;99.90;;;;;;4963314;29;20035;-95
2022/12/04 09:10:22;;;;;;;11.65;5.88;;;4.10;99.90;;;;;;4962496;29;20023;-95
2022/12/04 09:12:48;;;;;;;12.48;5.47;;;4.10;99.90;;;;;;4961632;29;20037;-94
2022/12/04 09:15:14;;;;;;;13.65;5.63;;;4.10;99.90;;;;;;4960763;29;20090;-93
2022/12/04 09:17:39;;;;;;;19.55;6.68;;;4.10;99.90;;;;;;4964311;28;20042;-92
2022/12/04 09:20:07;;;;;;;20.98;7.05;;;4.10;99.90;;;;;;4959954;28;20061;-93
2022/12/04 09:22:33;;;;;;;13.45;6.32;;;4.10;99.90;;;;;;4967318;28;20034;-92
2022/12/04 09:24:59;;;;;;;14.60;7.35;;;4.20;99.90;;;;;;4967419;28;20026;-92
2022/12/04 09:27:25;;;;;;;14.85;6.13;;;4.10;99.90;;;;;;4966682;28;20039;-92
2022/12/04 09:29:50;;;;;;;12.73;5.40;;;4.20;99.90;;;;;;4961339;28;20042;-92
2022/12/04 09:32:16;;;;;;;13.07;6.05;;;4.20;99.90;;;;;;4974349;28;20107;-94
2022/12/04 09:34:42;;;;;;;14.00;6.45;;;4.20;99.90;;;;;;4961059;28;20035;-93
2022/12/04 09:37:07;;;;;;;16.75;6.28;;;4.20;99.90;;;;;;4969525;28;20082;-91
2022/12/04 09:39:33;;;;;;;20.95;7.13;;;4.20;99.90;;;;;;4967206;28;20119;-92
2022/12/04 09:41:59;;;;;;;17.02;6.88;;;4.20;99.90;;;;;;4963352;28;20335;-92
2022/12/04 09:44:43;;;;;;;13.00;6.13;;;4.20;99.90;;;;;;4963582;28;20401;-90
2022/12/04 09:47:23;;;;;;;16.70;6.57;;;4.20;99.90;;;;;;4944856;29;20477;-93
2022/12/04 09:50:12;;;;;;;15.07;6.03;;;4.20;99.90;;;;;;4942321;29;20083;-94
2022/12/04 09:53:02;;;;;;;17.23;6.32;;;4.20;99.90;;;;;;4981932;28;20158;-93
2022/12/04 09:55:46;;;;;;;14.85;6.30;;;4.20;99.90;;;;;;4971505;28;20038;-93
2022/12/04 09:58:20;;;;;;;13.88;6.00;;;4.20;99.90;;;;;;4968558;28;20023;-92
2022/12/04 10:00:49;;;;;;;13.02;5.90;;;4.30;99.90;;;;;;4969865;28;20102;-92
2022/12/04 10:03:24;;;;;;;15.00;5.88;;;4.20;99.90;;;;;;4963960;28;20035;-94
2022/12/04 10:06:14;;;;;;;13.18;5.72;;;4.20;99.90;;;;;;4964393;28;20480;-91
2022/12/04 10:08:43;;;;;;;15.43;6.00;;;4.30;99.90;;;;;;4965088;28;20034;-94
2022/12/04 10:11:43;;;;;;;22.20;8.80;;;4.30;99.90;;;;;;4953097;28;20027;-92
2022/12/04 10:14:36;;;;;;;14.10;6.45;;;4.30;99.90;;;;;;4942720;29;20039;-93
2022/12/04 10:17:27;;;;;;;13.07;6.10;;;4.30;99.90;;;;;;4919964;29;20035;-92
2022/12/04 10:19:59;;;;;;;14.07;5.88;;;4.30;99.90;;;;;;4913688;29;20099;-92
2022/12/04 10:23:03;;;;;;;16.02;6.72;;;4.30;99.90;;;;;;4937672;29;20036;-93
2022/12/04 10:25:30;;;;;;;11.85;5.95;;;4.40;99.90;;;;;;4922910;29;20501;-93
2022/12/04 10:28:21;;;;;;;20.27;7.28;;;4.40;99.90;;;;;;4924186;29;20046;-92
2022/12/04 10:30:48;;;;;;;20.25;6.78;;;4.40;99.90;;;;;;4955681;29;20062;-92
2022/12/04 10:33:26;;;;;;;14.05;6.35;;;4.40;99.90;;;;;;4922154;29;20409;-94
2022/12/04 10:35:53;;;;;;;16.58;6.47;;;4.40;99.90;;;;;;4921996;29;20031;-93
2022/12/04 10:39:03;;;;;;;16.70;6.63;;;4.50;99.90;;;;;;4920281;29;20043;-93
2022/12/04 10:41:44;;;;;;;22.08;6.55;;;4.50;99.90;;;;;;4931497;29;20036;-92
2022/12/04 10:44:14;;;;;;;14.48;6.22;;;4.40;99.90;;;;;;4937440;29;20046;-95
2022/12/04 10:46:41;;;;;;;21.13;7.55;;;4.40;99.90;;;;;;4944836;29;20039;-91
2022/12/04 10:49:20;;;;;;;17.88;6.80;;;4.50;99.90;;;;;;4921969;29;20116;-91
2022/12/04 10:51:46;;;;;;;15.38;6.38;;;4.50;99.90;;;;;;4938050;29;20036;-92
2022/12/04 10:54:23;;;;;;;14.07;6.35;;;4.50;99.90;;;;;;4938072;29;20043;-91
2022/12/04 10:57:19;;;;;;;14.38;8.13;;;4.50;99.90;;;;;;4938359;29;20070;-92
2022/12/04 10:59:55;;;;;;;17.83;6.82;;;4.50;99.90;;;;;;4936390;29;20035;-92
2022/12/04 11:02:29;;;;;;;13.52;6.68;;;4.50;99.90;;;;;;4938699;29;20035;-91
2022/12/04 11:05:03;;;;;;;12.43;6.43;;;4.50;99.90;;;;;;4938507;29;20039;-91
2022/12/04 11:07:44;;;;;;;13.35;6.63;;;4.50;99.90;;;;;;4938223;29;20489;-91
2022/12/04 11:10:36;;;;;;;18.38;7.45;;;4.50;99.90;;;;;;4937939;29;20035;-91
2022/12/04 11:13:11;;;;;;;18.33;7.03;;;4.50;99.90;;;;;;4939006;29;20366;-90
2022/12/04 11:15:54;;;;;;;13.80;6.32;;;4.50;99.90;;;;;;4939051;29;20027;-91
2022/12/04 11:18:26;;;;;;;13.48;6.53;;;4.50;99.90;;;;;;4937909;29;20478;-91
2022/12/04 11:20:56;;;;;;;11.13;6.47;;;4.60;99.90;;;;;;4937912;29;20446;-92
2022/12/04 11:23:23;;;;;;;17.50;7.35;;;4.60;99.90;;;;;;4937671;29;20046;-90
2022/12/04 11:25:51;;;;;;;13.50;7.05;;;4.60;99.90;;;;;;4943001;29;20023;-93
2022/12/04 11:28:21;;;;;;;12.60;7.35;;;4.60;99.90;;;;;;4955756;28;20078;-92
2022/12/04 11:30:53;;;;;;;18.25;7.85;;;4.60;99.90;;;;;;4955945;29;20410;-91
2022/12/04 11:33:29;;;;;;;14.02;6.95;;;4.60;99.90;;;;;;4956635;29;20031;-92
2022/12/04 11:35:58;;;;;;;12.82;6.72;;;4.60;99.90;;;;;;4953515;29;20024;-93
2022/12/04 11:38:27;;;;;;;13.27;6.63;;;4.70;99.90;;;;;;4951712;28;20250;-92
2022/12/04 11:40:57;;;;;;;11.73;5.85;;;4.70;99.90;;;;;;4950368;29;20035;-94
2022/12/04 11:43:28;;;;;;;9.95;5.22;;;4.70;99.90;;;;;;4963950;28;20454;-92
2022/12/04 11:46:00;;;;;;;9.57;5.43;;;4.70;99.90;;;;;;4978522;28;20035;-91
2022/12/04 11:48:27;;;;;;;13.07;4.93;;;4.70;99.90;;;;;;4986572;28;20031;-92
2022/12/04 11:51:38;;;;;;;11.15;5.00;;;4.70;99.90;;;;;;4980536;28;20034;-93
2022/12/04 11:54:44;;;;;;;16.58;5.50;;;4.70;99.90;;;;;;4979030;28;20126;-92
2022/12/04 11:57:56;;;;;;;10.77;4.68;;;4.80;99.90;;;;;;4976864;28;20051;-92
2022/12/04 12:00:22;;;;;;;9.95;4.63;;;4.80;99.90;;;;;;4941178;29;20118;-94
2022/12/04 12:03:12;;;;;;;13.00;5.60;;;4.80;99.90;;;;;;4940013;29;20024;-91
2022/12/04 12:05:56;;;;;;;12.07;5.60;;;4.80;99.90;;;;;;4941868;29;20059;-92
2022/12/04 12:08:51;;;;;;;10.43;5.53;;;4.80;99.90;;;;;;4940024;29;20027;-93
2022/12/04 12:11:45;;;;;;;7.85;5.10;;;4.80;99.90;;;;;;4941368;29;20035;-92
2022/12/04 12:14:37;;;;;;;15.10;5.78;;;4.90;99.90;;;;;;4941722;29;20138;-92
2022/12/04 12:17:24;;;;;;;9.55;4.93;;;4.80;99.90;;;;;;4940306;29;20027;-93
2022/12/04 12:20:09;;;;;;;13.32;5.82;;;4.90;99.90;;;;;;4939512;29;20034;-94
2022/12/04 12:22:41;;;;;;;12.90;5.60;;;4.90;99.90;;;;;;4938475;29;20389;-94
2022/12/04 12:25:18;;;;;;;14.35;5.85;;;4.90;99.90;;;;;;4920589;29;20043;-94
2022/12/04 12:28:01;;;;;;;12.68;5.47;;;4.90;99.90;;;;;;4921942;29;20027;-93
2022/12/04 12:30:33;;;;;;;13.00;6.88;;;4.90;99.90;;;;;;4937906;29;20040;-93
2022/12/04 12:33:16;;;;;;;13.95;6.40;;;4.90;99.90;;;;;;4937068;29;20032;-93
2022/12/04 12:36:10;;;;;;;13.68;6.30;;;4.90;99.90;;;;;;4937248;29;20019;-93
2022/12/04 12:38:54;;;;;;;13.77;5.97;;;4.90;99.90;;;;;;4938436;29;20023;-95
2022/12/04 12:41:29;;;;;;;9.25;5.38;;;5.00;99.90;;;;;;4943117;29;20040;-93
2022/12/04 12:44:13;;;;;;;14.63;5.90;;;4.90;99.90;;;;;;4938392;29;20035;-92
2022/12/04 12:46:50;;;;;;;10.75;6.00;;;5.00;99.90;;;;;;4935922;29;20090;-93
2022/12/04 12:49:24;;;;;;;13.48;6.03;;;5.00;99.90;;;;;;4936884;29;20042;-93
2022/12/04 12:52:05;;;;;;;13.55;5.75;;;5.00;99.90;;;;;;4948413;28;20139;-93
2022/12/04 12:54:30;;;;;;;10.95;5.03;;;5.00;99.90;;;;;;4974571;28;20067;-93
2022/12/04 12:57:13;;;;;;;13.25;6.03;;;5.00;99.90;;;;;;4974727;28;20489;-92
2022/12/04 12:59:46;;;;;;;9.02;4.75;;;5.10;99.90;;;;;;4974300;28;20022;-94
2022/12/04 13:02:20;;;;;;;12.85;4.90;;;5.10;99.90;;;;;;4974432;28;20129;-92
2022/12/04 13:04:51;;;;;;;16.75;5.43;;;5.10;99.90;;;;;;4971287;28;20393;-94
2022/12/04 13:07:17;;;;;;;10.18;4.95;;;5.10;99.90;;;;;;4969236;28;20039;-93
2022/12/04 13:10:06;;;;;;;11.98;4.95;;;5.10;99.90;;;;;;4974425;28;20608;-93
2022/12/04 13:13:07;;;;;;;11.27;5.10;;;5.10;99.90;;;;;;4962357;28;20097;-94
2022/12/04 13:15:43;;;;;;;9.65;4.88;;;5.10;99.90;;;;;;4947627;28;20031;-95
2022/12/04 13:18:21;;;;;;;14.93;5.13;;;5.20;99.90;;;;;;4963216;28;20022;-94
2022/12/04 13:20:53;;;;;;;12.55;4.43;;;5.10;99.90;;;;;;4960445;28;20033;-93
2022/12/04 13:23:19;;;;;;;10.75;4.32;;;5.10;99.90;;;;;;4967015;28;20109;-92
2022/12/04 13:25:54;;;;;;;10.40;4.80;;;5.20;99.90;;;;;;4968914;28;20109;-92
2022/12/04 13:29:08;;;;;;;16.63;5.03;;;5.10;99.90;;;;;;4966760;28;20098;-93
2022/12/04 13:31:44;;;;;;;9.75;4.07;;;5.20;99.90;;;;;;4943325;29;20038;-94